createdAt,value
2022-10-04T00:01:47.572Z,0.40
2022-10-04T00:04:18.187Z,0.50
2022-10-04T00:07:05.699Z,0.43
2022-10-04T00:09:36.113Z,0.30
2022-10-04T00:12:04.183Z,0.40
2022-10-04T00:14:34.093Z,0.32
2022-10-04T00:17:09.265Z,0.30
2022-10-04T00:19:42.310Z,0.30
2022-10-04T00:22:12.644Z,0.50
2022-10-04T00:24:59.827Z,0.40
2022-10-04T00:27:28.331Z,0.40
2022-10-04T00:30:04.555Z,0.55
2022-10-04T00:32:40.781Z,0.47
2022-10-04T00:35:25.924Z,0.45
2022-10-04T00:38:09.162Z,0.40
2022-10-04T00:40:40.555Z,0.40
2022-10-04T00:43:17.467Z,0.55
2022-10-04T00:45:56.420Z,0.60
2022-10-04T00:48:26.614Z,0.50
2022-10-04T00:50:59.448Z,0.60
2022-10-04T00:53:26.631Z,0.60
2022-10-04T00:55:57.365Z,0.60
2022-10-04T00:58:30.287Z,0.75
2022-10-04T01:00:58.471Z,0.57
2022-10-04T01:03:37.985Z,0.80
2022-10-04T01:06:06.510Z,0.60
2022-10-04T01:08:40.771Z,0.40
2022-10-04T01:11:12.070Z,0.60
2022-10-04T01:16:07.740Z,0.40
2022-10-04T01:18:36.287Z,0.60
2022-10-04T01:21:21.542Z,0.60
2022-10-04T01:23:50.240Z,0.70
2022-10-04T01:26:30.270Z,0.60
2022-10-04T01:29:02.193Z,0.77
2022-10-04T01:31:30.297Z,0.60
2022-10-04T01:33:57.591Z,0.70
2022-10-04T01:36:24.778Z,0.55
2022-10-04T01:38:52.225Z,0.55
2022-10-04T01:41:22.367Z,0.55
2022-10-04T01:43:50.842Z,0.75
2022-10-04T01:46:21.598Z,0.50
2022-10-04T01:48:48.778Z,0.60
2022-10-04T01:51:19.932Z,0.50
2022-10-04T01:53:50.760Z,0.60
2022-10-04T01:56:22.373Z,0.65
2022-10-04T01:58:51.776Z,0.60
2022-10-04T02:01:24.899Z,0.60
2022-10-04T02:04:04.261Z,0.65
2022-10-04T02:06:36.098Z,0.60
2022-10-04T02:09:08.687Z,0.70
2022-10-04T02:11:37.605Z,0.70
2022-10-04T02:14:05.523Z,0.70
2022-10-04T02:16:37.367Z,0.73
2022-10-04T02:19:06.082Z,0.80
2022-10-04T02:21:33.296Z,0.70
2022-10-04T02:24:00.649Z,0.80
2022-10-04T02:26:27.807Z,0.80
2022-10-04T02:28:54.994Z,0.85
2022-10-04T02:31:42.113Z,0.70
2022-10-04T02:34:09.838Z,0.90
2022-10-04T02:36:37.651Z,0.73
2022-10-04T02:39:06.905Z,0.65
2022-10-04T02:41:38.774Z,0.73
2022-10-04T02:44:24.767Z,0.80
2022-10-04T02:47:15.219Z,0.80
2022-10-04T02:50:05.340Z,0.80
2022-10-04T02:52:39.103Z,0.65
2022-10-04T02:55:18.429Z,0.80
2022-10-04T02:57:45.644Z,0.93
2022-10-04T03:00:24.771Z,0.90
2022-10-04T03:03:10.530Z,0.70
2022-10-04T03:05:38.891Z,0.55
2022-10-04T03:08:06.413Z,0.52
2022-10-04T03:10:35.507Z,0.52
2022-10-04T03:13:03.170Z,0.50
2022-10-04T03:15:30.513Z,0.50
2022-10-04T03:17:57.720Z,0.50
2022-10-04T03:20:25.005Z,0.30
2022-10-04T03:22:55.517Z,0.40
2022-10-04T03:25:24.893Z,0.40
2022-10-04T03:27:52.882Z,0.60
2022-10-04T03:30:20.726Z,0.32
2022-10-04T03:32:49.287Z,0.47
2022-10-04T03:35:31.578Z,0.30
2022-10-04T03:37:59.304Z,0.40
2022-10-04T03:40:28.794Z,0.40
2022-10-04T03:42:56.319Z,0.30
2022-10-04T03:45:24.499Z,0.50
2022-10-04T03:47:53.256Z,0.20
2022-10-04T03:50:27.514Z,0.30
2022-10-04T03:52:55.792Z,0.30
2022-10-04T03:55:25.250Z,0.20
2022-10-04T03:57:52.721Z,0.20
2022-10-04T04:00:20.174Z,0.30
2022-10-04T04:02:50.890Z,0.28
2022-10-04T04:05:21.055Z,0.22
2022-10-04T04:08:06.999Z,0.20
2022-10-04T04:10:43.034Z,0.32
2022-10-04T04:13:10.167Z,0.28
2022-10-04T04:15:38.342Z,0.30
2022-10-04T04:18:07.007Z,0.40
2022-10-04T04:20:41.706Z,0.30
2022-10-04T04:23:12.012Z,0.20
2022-10-04T04:25:43.734Z,0.40
2022-10-04T04:28:16.891Z,0.30
2022-10-04T04:30:48.794Z,0.35
2022-10-04T04:33:22.686Z,0.28
2022-10-04T04:35:54.442Z,0.30
2022-10-04T04:38:23.136Z,0.40
2022-10-04T04:40:50.854Z,0.60
2022-10-04T04:43:19.921Z,0.30
2022-10-04T04:46:02.998Z,0.40
2022-10-04T04:48:37.195Z,0.40
2022-10-04T04:51:05.058Z,0.60
2022-10-04T04:53:32.266Z,0.68
2022-10-04T04:56:05.061Z,0.50
2022-10-04T04:58:42.561Z,0.50
2022-10-04T05:01:09.774Z,0.75
2022-10-04T05:03:37.050Z,0.73
2022-10-04T05:06:05.137Z,0.60
2022-10-04T05:08:38.601Z,0.60
2022-10-04T05:11:08.510Z,0.60
2022-10-04T05:13:51.043Z,0.70
2022-10-04T05:16:24.264Z,0.88
2022-10-04T05:19:17.855Z,0.90
2022-10-04T05:21:49.407Z,0.73
2022-10-04T05:24:24.890Z,1.00
2022-10-04T05:26:53.842Z,0.80
2022-10-04T05:29:24.209Z,0.70
2022-10-04T05:32:07.983Z,0.70
2022-10-04T05:34:42.149Z,0.90
2022-10-04T05:37:31.894Z,0.90
2022-10-04T05:40:14.171Z,0.82
2022-10-04T05:42:45.825Z,1.02
2022-10-04T05:45:42.439Z,1.20
2022-10-04T05:48:10.715Z,1.35
2022-10-04T05:50:40.637Z,0.90
2022-10-04T05:53:19.420Z,1.33
2022-10-04T05:55:46.538Z,1.20
2022-10-04T05:58:18.343Z,1.20
2022-10-04T06:01:02.463Z,1.10
2022-10-04T06:03:48.361Z,1.30
2022-10-04T06:06:29.981Z,0.90
2022-10-04T06:09:06.495Z,1.35
2022-10-04T06:11:47.118Z,0.90
2022-10-04T06:14:20.432Z,1.50
2022-10-04T06:16:59.892Z,1.13
2022-10-04T06:19:33.275Z,1.42
2022-10-04T06:22:15.821Z,1.30
2022-10-04T06:24:45.140Z,1.30
2022-10-04T06:27:15.789Z,1.52
2022-10-04T06:29:45.493Z,1.60
2022-10-04T06:32:24.705Z,1.45
2022-10-04T06:34:59.019Z,1.33
2022-10-04T06:37:45.041Z,1.40
2022-10-04T06:40:38.639Z,1.30
2022-10-04T06:43:12.015Z,1.88
2022-10-04T06:45:57.768Z,1.83
2022-10-04T06:48:37.163Z,1.90
2022-10-04T06:51:04.273Z,1.60
2022-10-04T06:53:43.830Z,1.45
2022-10-04T06:56:27.362Z,1.40
2022-10-04T06:59:00.603Z,1.10
2022-10-04T07:01:28.160Z,1.58
2022-10-04T07:03:58.668Z,1.77
2022-10-04T07:06:31.632Z,1.40
2022-10-04T07:09:02.642Z,1.33
2022-10-04T07:11:32.863Z,1.40
2022-10-04T07:14:08.433Z,1.23
2022-10-04T07:16:35.653Z,1.20
2022-10-04T07:19:15.163Z,1.88
2022-10-04T07:21:49.977Z,1.70
2022-10-04T07:24:27.736Z,2.17
2022-10-04T07:26:55.674Z,1.67
2022-10-04T07:29:25.416Z,2.10
2022-10-04T07:32:12.884Z,1.58
2022-10-04T07:34:50.051Z,2.00
2022-10-04T07:37:17.384Z,2.50
2022-10-04T07:39:48.526Z,1.85
2022-10-04T07:42:15.634Z,1.90
2022-10-04T07:44:45.476Z,2.08
2022-10-04T07:47:21.586Z,1.95
2022-10-04T07:49:50.529Z,2.00
2022-10-04T07:52:20.707Z,2.47
2022-10-04T07:55:13.949Z,2.85
2022-10-04T07:57:59.417Z,2.17
2022-10-04T08:00:32.591Z,2.00
2022-10-04T08:02:59.919Z,2.10
2022-10-04T08:05:29.889Z,2.30
2022-10-04T08:08:16.017Z,2.03
2022-10-04T08:11:02.129Z,1.83
2022-10-04T08:13:43.298Z,2.53
2022-10-04T08:16:20.321Z,1.98
2022-10-04T08:19:10.965Z,2.53
2022-10-04T08:22:01.507Z,2.15
2022-10-04T08:24:52.599Z,2.20
2022-10-04T08:27:20.597Z,2.08
2022-10-04T08:29:58.354Z,2.00
2022-10-04T08:32:31.770Z,2.05
2022-10-04T08:35:08.144Z,2.05
2022-10-04T08:37:35.311Z,1.65
2022-10-04T08:40:12.824Z,1.90
2022-10-04T08:42:46.549Z,1.95
2022-10-04T08:45:22.848Z,1.90
2022-10-04T08:48:05.854Z,1.88
2022-10-04T08:50:49.686Z,1.90
2022-10-04T08:53:36.267Z,1.90
2022-10-04T08:56:03.441Z,2.20
2022-10-04T08:58:36.686Z,2.00
2022-10-04T09:01:16.129Z,2.97
2022-10-04T09:03:43.296Z,2.20
2022-10-04T09:06:22.852Z,2.25
2022-10-04T09:09:10.998Z,1.80
2022-10-04T09:11:58.605Z,2.47
2022-10-04T09:14:25.722Z,2.33
2022-10-04T09:17:17.439Z,2.58
2022-10-04T09:20:33.295Z,3.05
2022-10-04T09:23:16.131Z,2.30
2022-10-04T09:26:06.461Z,3.15
2022-10-04T09:28:46.083Z,3.05
2022-10-04T09:31:25.847Z,2.83
2022-10-04T09:34:17.330Z,2.60
2022-10-04T09:39:30.460Z,3.08
2022-10-04T09:42:09.254Z,3.22
2022-10-04T09:44:46.247Z,3.25
2022-10-04T09:47:37.883Z,2.90
2022-10-04T09:50:18.838Z,2.90
2022-10-04T09:52:54.005Z,3.83
2022-10-04T09:55:33.789Z,3.45
2022-10-04T09:58:04.139Z,3.33
2022-10-04T10:00:36.857Z,3.40
2022-10-04T10:03:23.566Z,3.75
2022-10-04T10:05:50.870Z,3.90
2022-10-04T10:08:23.848Z,2.50
2022-10-04T10:11:13.346Z,2.97
2022-10-04T10:13:40.485Z,3.00
2022-10-04T10:16:29.992Z,2.60
2022-10-04T10:19:15.843Z,2.92
2022-10-04T10:21:53.971Z,2.95
2022-10-04T10:24:33.231Z,3.45
2022-10-04T10:27:02.282Z,3.40
2022-10-04T10:29:40.701Z,3.45
2022-10-04T10:32:10.779Z,3.10
2022-10-04T10:34:56.933Z,4.00
2022-10-04T10:37:33.805Z,3.60
2022-10-04T10:40:06.734Z,3.67
2022-10-04T10:42:37.981Z,3.40
2022-10-04T10:47:59.915Z,3.78
2022-10-04T10:50:59.115Z,2.78
2022-10-04T10:53:46.270Z,3.08
2022-10-04T10:56:30.365Z,3.10
2022-10-04T10:59:16.473Z,3.15
2022-10-04T11:02:04.898Z,3.42
2022-10-04T11:04:32.313Z,3.28
2022-10-04T11:07:08.569Z,3.90
2022-10-04T11:09:44.892Z,3.47
2022-10-04T11:12:17.957Z,4.15
2022-10-04T11:14:51.206Z,3.67
2022-10-04T11:17:37.239Z,4.30
2022-10-04T11:20:16.158Z,4.47
2022-10-04T11:22:52.442Z,4.38
2022-10-04T11:25:25.792Z,3.55
2022-10-04T11:27:56.677Z,3.60
2022-10-04T11:30:29.927Z,3.08
2022-10-04T11:33:06.213Z,3.10
2022-10-04T11:35:39.669Z,3.88
2022-10-04T11:38:09.818Z,3.72
2022-10-04T11:40:40.332Z,3.35
2022-10-04T11:43:18.339Z,3.80
2022-10-04T11:46:09.857Z,3.70
2022-10-04T11:48:53.249Z,3.65
2022-10-04T11:51:40.618Z,3.20
2022-10-04T11:54:16.916Z,3.50
2022-10-04T11:56:48.267Z,3.22
2022-10-04T11:59:45.114Z,3.47
2022-10-04T12:02:32.365Z,3.28
2022-10-04T12:05:18.337Z,3.30
2022-10-04T12:07:51.534Z,3.53
2022-10-04T12:10:18.670Z,3.58
2022-10-04T12:12:58.349Z,3.75
2022-10-04T12:16:00.740Z,3.22
2022-10-04T12:18:33.256Z,3.63
2022-10-04T12:21:09.953Z,3.15
2022-10-04T12:23:56.204Z,2.80
2022-10-04T12:26:43.094Z,3.03
2022-10-04T12:29:29.045Z,3.00
2022-10-04T12:32:04.385Z,3.33
2022-10-04T12:34:50.458Z,2.97
2022-10-04T12:37:18.051Z,3.22
2022-10-04T12:39:51.333Z,3.00
2022-10-04T12:42:24.340Z,2.80
2022-10-04T12:45:10.116Z,2.80
2022-10-04T12:47:56.007Z,3.08
2022-10-04T12:50:24.534Z,3.47
2022-10-04T12:52:58.272Z,3.15
2022-10-04T12:55:45.795Z,2.70
2022-10-04T12:58:18.812Z,3.00
2022-10-04T13:00:47.007Z,2.90
2022-10-04T13:03:29.247Z,3.08
2022-10-04T13:06:19.736Z,3.47
2022-10-04T13:08:57.579Z,3.13
2022-10-04T13:11:43.050Z,3.53
2022-10-04T13:14:33.230Z,3.85
2022-10-04T13:17:29.977Z,3.20
2022-10-04T13:20:13.450Z,3.50
2022-10-04T13:22:59.264Z,3.50
2022-10-04T13:25:32.520Z,3.22
2022-10-04T13:28:05.819Z,3.60
2022-10-04T13:30:51.839Z,3.50
2022-10-04T13:33:19.094Z,3.97
2022-10-04T13:36:03.525Z,3.67
2022-10-04T13:38:46.171Z,3.20
2022-10-04T13:41:28.374Z,3.08
2022-10-04T13:44:02.507Z,2.83
2022-10-04T13:46:29.640Z,2.90
2022-10-04T13:48:56.925Z,2.65
2022-10-04T13:51:30.078Z,2.50
2022-10-04T13:54:25.083Z,2.60
2022-10-04T13:56:55.102Z,2.20
2022-10-04T13:59:23.026Z,2.28
2022-10-04T14:02:10.416Z,1.90
2022-10-04T14:04:37.603Z,1.65
2022-10-04T14:07:19.358Z,2.00
2022-10-04T14:10:15.735Z,2.13
2022-10-04T14:12:46.473Z,2.38
2022-10-04T14:15:29.028Z,2.47
2022-10-04T14:18:23.466Z,2.42
2022-10-04T14:20:59.881Z,2.50
2022-10-04T14:23:46.499Z,2.33
2022-10-04T14:26:17.094Z,2.47
2022-10-04T14:28:59.370Z,2.33
2022-10-04T14:31:38.486Z,2.72
2022-10-04T14:34:25.843Z,2.60
2022-10-04T14:36:58.919Z,3.70
2022-10-04T14:39:44.870Z,2.65
2022-10-04T14:42:12.189Z,3.00
2022-10-04T14:44:51.678Z,2.83
2022-10-04T14:47:37.557Z,2.83
2022-10-04T14:50:10.795Z,2.85
2022-10-04T14:52:43.782Z,3.13
2022-10-04T14:55:29.571Z,3.17
2022-10-04T14:58:06.139Z,2.70
2022-10-04T15:00:33.314Z,2.90
2022-10-04T15:03:28.965Z,3.13
2022-10-04T15:06:03.427Z,2.35
2022-10-04T15:08:46.052Z,3.05
2022-10-04T15:11:32.190Z,2.95
2022-10-04T15:14:03.570Z,3.30
2022-10-04T15:16:30.816Z,2.88
2022-10-04T15:19:04.562Z,3.47
2022-10-04T15:21:32.978Z,3.65
2022-10-04T15:24:19.051Z,3.00
2022-10-04T15:27:09.793Z,3.30
2022-10-04T15:29:53.340Z,3.97
2022-10-04T15:32:31.886Z,3.20
2022-10-04T15:37:44.329Z,4.72
2022-10-04T15:40:40.987Z,5.00
2022-10-04T15:43:11.110Z,4.53
2022-10-04T15:45:38.261Z,4.60
2022-10-04T15:48:11.318Z,4.03
2022-10-04T15:50:54.153Z,4.30
2022-10-04T15:53:30.645Z,4.30
2022-10-04T15:56:02.393Z,4.75
2022-10-04T15:58:35.738Z,4.60
2022-10-04T16:01:13.199Z,4.47
2022-10-04T16:03:46.377Z,4.25
2022-10-04T16:06:21.645Z,4.72
2022-10-04T16:08:58.030Z,5.10
2022-10-04T16:11:34.762Z,4.22
2022-10-04T16:14:04.936Z,4.50
2022-10-04T16:16:46.020Z,4.70
2022-10-04T16:22:08.827Z,4.13
2022-10-04T16:24:40.616Z,5.55
2022-10-04T16:27:23.871Z,4.88
2022-10-04T16:30:28.223Z,4.38
2022-10-04T16:33:10.932Z,4.55
2022-10-04T16:35:44.524Z,4.85
2022-10-04T16:38:14.477Z,4.43
2022-10-04T16:40:54.075Z,3.80
2022-10-04T16:43:21.203Z,4.22
2022-10-04T16:45:48.385Z,3.83
2022-10-04T16:48:15.585Z,4.05
2022-10-04T16:51:00.841Z,3.30
2022-10-04T16:53:46.466Z,3.47
2022-10-04T16:56:18.977Z,3.50
2022-10-04T16:58:51.280Z,3.60
2022-10-04T17:01:27.499Z,3.55
2022-10-04T17:04:13.139Z,3.00
2022-10-04T17:06:44.067Z,3.30
2022-10-04T17:09:29.819Z,3.50
2022-10-04T17:12:09.283Z,3.72
2022-10-04T17:14:42.536Z,3.17
2022-10-04T17:17:18.603Z,3.92
2022-10-04T17:20:04.088Z,3.42
2022-10-04T17:22:46.533Z,3.40
2022-10-04T17:25:32.868Z,3.80
2022-10-04T17:28:09.959Z,3.42
2022-10-04T17:30:47.852Z,3.70
2022-10-04T17:33:29.195Z,3.50
2022-10-04T17:38:42.091Z,3.97
2022-10-04T17:41:22.686Z,3.85
2022-10-04T17:43:56.059Z,4.45
2022-10-04T17:46:31.262Z,4.70
2022-10-04T17:49:28.855Z,4.35
2022-10-04T17:52:16.478Z,4.75
2022-10-04T17:55:02.351Z,4.55
2022-10-04T17:57:35.481Z,4.60
2022-10-04T18:00:13.287Z,4.43
2022-10-04T18:03:00.857Z,5.28
2022-10-04T18:05:30.918Z,4.22
2022-10-04T18:08:03.730Z,4.13
2022-10-04T18:10:34.024Z,4.72
2022-10-04T18:13:16.644Z,4.73
2022-10-04T18:15:50.589Z,4.63
2022-10-04T18:18:21.088Z,4.88
2022-10-04T18:21:08.535Z,4.60
2022-10-04T18:23:42.216Z,5.72
2022-10-04T18:26:18.482Z,5.82
2022-10-04T18:28:47.563Z,5.10
2022-10-04T18:31:24.184Z,6.00
2022-10-04T18:33:54.150Z,5.65
2022-10-04T18:36:31.300Z,5.55
2022-10-04T18:39:04.123Z,5.43
2022-10-04T18:41:49.982Z,5.88
2022-10-04T18:44:17.584Z,5.80
2022-10-04T18:46:51.298Z,4.55
2022-10-04T18:49:25.210Z,5.40
2022-10-04T18:51:55.394Z,5.25
2022-10-04T18:54:22.785Z,5.13
2022-10-04T18:56:52.780Z,5.90
2022-10-04T18:59:47.480Z,5.85
2022-10-04T19:02:37.809Z,4.65
2022-10-04T19:05:08.816Z,5.25
2022-10-04T19:07:51.550Z,4.80
2022-10-04T19:10:18.706Z,5.28
2022-10-04T19:13:02.866Z,5.75
2022-10-04T19:15:42.482Z,6.15
2022-10-04T19:18:34.848Z,5.93
2022-10-04T19:21:08.267Z,5.70
2022-10-04T19:23:35.507Z,6.00
2022-10-04T19:26:30.606Z,4.82
2022-10-04T19:28:56.121Z,5.00
2022-10-04T19:31:41.943Z,4.70
2022-10-04T19:34:12.760Z,4.30
2022-10-04T19:36:47.931Z,4.28
2022-10-04T19:39:23.008Z,4.20
2022-10-04T19:42:10.815Z,3.83
2022-10-04T19:44:41.297Z,4.55
2022-10-04T19:47:28.838Z,4.50
2022-10-04T19:50:03.782Z,3.65
2022-10-04T19:52:33.721Z,4.03
2022-10-04T19:55:05.991Z,3.80
2022-10-04T19:57:39.307Z,3.78
2022-10-04T20:00:12.934Z,4.07
2022-10-04T20:02:48.492Z,4.35
2022-10-04T20:05:29.569Z,4.63
2022-10-04T20:08:01.497Z,4.80
2022-10-04T20:10:33.938Z,5.47
2022-10-04T20:13:17.205Z,5.38
2022-10-04T20:15:46.649Z,5.05
2022-10-04T20:18:46.251Z,4.65
2022-10-04T20:21:26.515Z,4.80
2022-10-04T20:23:57.297Z,5.43
2022-10-04T20:26:55.087Z,5.75
2022-10-04T20:29:37.763Z,5.28
2022-10-04T20:32:05.091Z,5.18
2022-10-04T20:34:35.676Z,5.35
2022-10-04T20:37:03.645Z,5.25
2022-10-04T20:39:40.420Z,5.18
2022-10-04T20:42:27.046Z,4.88
2022-10-04T20:44:57.143Z,5.35
2022-10-04T20:47:24.478Z,5.05
2022-10-04T20:49:53.944Z,4.60
2022-10-04T20:52:21.856Z,4.90
2022-10-04T20:54:52.766Z,4.80
2022-10-04T20:57:23.924Z,5.05
2022-10-04T21:02:18.948Z,5.35
2022-10-04T21:04:47.626Z,5.40
2022-10-04T21:07:18.986Z,4.97
2022-10-04T21:09:46.254Z,5.70
2022-10-04T21:12:45.722Z,5.40
2022-10-04T21:15:20.756Z,5.00
2022-10-04T21:18:01.861Z,4.80
2022-10-04T21:20:48.171Z,5.63
2022-10-04T21:23:18.129Z,5.18
2022-10-04T21:25:45.316Z,4.90
2022-10-04T21:28:32.662Z,4.97
2022-10-04T21:31:00.423Z,5.30
2022-10-04T21:33:27.658Z,5.22
2022-10-04T21:35:54.914Z,4.90
2022-10-04T21:38:22.167Z,5.00
2022-10-04T21:40:49.326Z,4.88
2022-10-04T21:43:16.774Z,5.07
2022-10-04T21:45:44.022Z,4.88
2022-10-04T21:48:11.206Z,4.97
2022-10-04T21:50:38.472Z,4.82
2022-10-04T21:53:05.806Z,4.43
2022-10-04T21:55:33.098Z,4.78
2022-10-04T21:58:00.714Z,4.57
2022-10-04T22:00:27.880Z,5.07
2022-10-04T22:02:55.042Z,5.40
2022-10-04T22:05:22.275Z,4.57
2022-10-04T22:07:49.444Z,4.75
2022-10-04T22:10:16.738Z,4.57
2022-10-04T22:12:44.088Z,4.57
2022-10-04T22:15:11.274Z,5.03
2022-10-04T22:17:38.515Z,4.93
2022-10-04T22:20:05.983Z,5.07
2022-10-04T22:22:36.393Z,4.78
2022-10-04T22:25:14.158Z,4.60
2022-10-04T22:27:41.331Z,5.00
2022-10-04T22:30:12.186Z,5.43
2022-10-04T22:32:39.483Z,5.18
2022-10-04T22:35:17.521Z,5.03
2022-10-04T22:37:45.440Z,5.07
2022-10-04T22:40:15.533Z,5.13
2022-10-04T22:42:43.280Z,5.60
2022-10-04T22:45:16.950Z,5.45
2022-10-04T22:47:45.927Z,4.80
2022-10-04T22:50:21.940Z,5.30
2022-10-04T22:52:49.074Z,5.35
2022-10-04T22:55:18.378Z,5.47
2022-10-04T22:57:46.154Z,5.28
2022-10-04T23:00:13.631Z,5.28
2022-10-04T23:02:40.871Z,5.68
2022-10-04T23:05:16.256Z,5.35
2022-10-04T23:07:44.334Z,4.95
2022-10-04T23:10:12.932Z,5.28
2022-10-04T23:12:41.075Z,5.47
2022-10-04T23:15:08.622Z,5.10
2022-10-04T23:17:37.238Z,5.18
2022-10-04T23:20:12.825Z,5.25
2022-10-04T23:22:40.379Z,5.13
2022-10-04T23:25:15.373Z,4.68
2022-10-04T23:27:42.573Z,5.53
2022-10-04T23:30:13.225Z,5.68
2022-10-04T23:32:40.534Z,5.05
2022-10-04T23:35:14.222Z,5.35
2022-10-04T23:37:41.534Z,5.75
2022-10-04T23:40:10.534Z,5.38
2022-10-04T23:42:37.714Z,5.78
2022-10-04T23:45:12.359Z,5.63
2022-10-04T23:47:39.550Z,6.00
2022-10-04T23:50:19.031Z,5.18
2022-10-04T23:52:46.349Z,6.10
2022-10-04T23:55:28.546Z,6.50
2022-10-04T23:57:55.738Z,6.20
